createdAt,value
2022-08-16T00:00:38.424Z,2.70
2022-08-16T00:01:40.558Z,2.90
2022-08-16T00:02:36.568Z,2.90
2022-08-16T00:03:37.757Z,3.10
2022-08-16T00:04:35.548Z,2.70
2022-08-16T00:05:35.548Z,2.90
2022-08-16T00:06:36.703Z,2.80
2022-08-16T00:07:35.513Z,2.90
2022-08-16T00:08:37.043Z,3.10
2022-08-16T00:09:35.798Z,3.00
2022-08-16T00:10:35.482Z,2.90
2022-08-16T00:11:35.481Z,2.80
2022-08-16T00:12:35.451Z,3.10
2022-08-16T00:13:41.409Z,2.70
2022-08-16T00:14:36.442Z,3.00
2022-08-16T00:15:51.104Z,2.80
2022-08-16T00:17:05.388Z,2.90
2022-08-16T00:17:56.033Z,2.80
2022-08-16T00:18:36.394Z,3.00
2022-08-16T00:19:41.790Z,2.90
2022-08-16T00:20:36.372Z,2.90
2022-08-16T00:21:35.366Z,2.70
2022-08-16T00:22:35.347Z,2.90
2022-08-16T00:23:40.479Z,2.80
2022-08-16T00:24:36.360Z,3.20
2022-08-16T00:26:33.450Z,2.50
2022-08-16T00:26:43.913Z,2.90
2022-08-16T00:27:36.287Z,2.80
2022-08-16T00:28:35.278Z,2.70
2022-08-16T00:29:35.277Z,2.80
2022-08-16T00:30:35.270Z,2.90
2022-08-16T00:31:59.995Z,2.70
2022-08-16T00:32:36.269Z,2.70
2022-08-16T00:33:35.220Z,2.80
2022-08-16T00:34:43.973Z,2.90
2022-08-16T00:35:36.200Z,2.70
2022-08-16T00:36:35.201Z,2.70
2022-08-16T00:37:57.163Z,2.60
2022-08-16T00:38:40.685Z,2.70
2022-08-16T00:39:36.223Z,2.90
2022-08-16T00:40:36.805Z,3.00
2022-08-16T00:41:38.170Z,2.70
2022-08-16T00:42:35.131Z,2.70
2022-08-16T00:43:42.725Z,2.90
2022-08-16T00:44:36.111Z,2.60
2022-08-16T00:45:35.500Z,2.90
2022-08-16T00:46:35.518Z,2.60
2022-08-16T00:47:35.063Z,2.80
2022-08-16T00:48:45.566Z,2.80
2022-08-16T00:49:39.126Z,2.60
2022-08-16T00:50:36.821Z,2.50
2022-08-16T00:51:35.034Z,2.90
2022-08-16T00:52:35.025Z,2.70
2022-08-16T00:53:35.007Z,2.50
2022-08-16T00:54:35.007Z,2.80
2022-08-16T00:55:38.022Z,2.60
2022-08-16T00:56:56.699Z,2.70
2022-08-16T00:57:59.584Z,2.50
2022-08-16T00:58:35.976Z,2.90
2022-08-16T00:59:34.937Z,2.40
2022-08-16T01:00:34.937Z,2.60
2022-08-16T01:01:35.886Z,2.90
2022-08-16T01:02:34.918Z,2.80
2022-08-16T01:03:35.220Z,2.60
2022-08-16T01:04:34.887Z,2.80
2022-08-16T01:05:34.877Z,2.40
2022-08-16T01:06:48.804Z,2.50
2022-08-16T01:07:51.795Z,2.70
2022-08-16T01:08:36.864Z,2.70
2022-08-16T01:09:34.829Z,2.80
2022-08-16T01:10:34.821Z,2.60
2022-08-16T01:11:34.911Z,2.50
2022-08-16T01:12:35.790Z,2.70
2022-08-16T01:13:34.792Z,2.60
2022-08-16T01:14:34.783Z,2.60
2022-08-16T01:15:34.774Z,2.50
2022-08-16T01:16:34.988Z,2.70
2022-08-16T01:17:36.870Z,2.60
2022-08-16T01:18:40.442Z,2.50
2022-08-16T01:19:35.731Z,2.70
2022-08-16T01:20:35.723Z,2.30
2022-08-16T01:21:34.787Z,2.60
2022-08-16T01:22:48.372Z,2.50
2022-08-16T01:23:58.673Z,2.20
2022-08-16T01:24:51.477Z,2.60
2022-08-16T01:25:36.304Z,2.70
2022-08-16T01:26:35.609Z,2.50
2022-08-16T01:27:34.843Z,2.50
2022-08-16T01:28:36.969Z,2.80
2022-08-16T01:29:57.263Z,2.40
2022-08-16T01:30:39.741Z,2.20
2022-08-16T01:31:37.526Z,2.70
2022-08-16T01:32:35.578Z,2.70
2022-08-16T01:33:35.803Z,2.30
2022-08-16T01:34:34.580Z,2.80
2022-08-16T01:35:36.166Z,2.20
2022-08-16T01:36:34.579Z,2.50
2022-08-16T01:37:35.760Z,2.50
2022-08-16T01:38:34.520Z,2.30
2022-08-16T01:39:35.554Z,2.70
2022-08-16T01:40:34.520Z,2.40
2022-08-16T01:41:34.499Z,2.70
2022-08-16T01:42:35.479Z,2.50
2022-08-16T01:43:34.461Z,2.30
2022-08-16T01:44:37.522Z,2.30
2022-08-16T01:45:39.678Z,2.50
2022-08-16T01:46:39.131Z,2.60
2022-08-16T01:47:35.432Z,2.60
2022-08-16T01:48:34.413Z,2.40
2022-08-16T01:49:43.141Z,2.50
2022-08-16T01:50:42.277Z,2.30
2022-08-16T01:51:35.393Z,2.60
2022-08-16T01:52:34.363Z,2.40
2022-08-16T01:53:34.362Z,2.60
2022-08-16T01:54:34.342Z,2.40
2022-08-16T01:55:35.713Z,2.10
2022-08-16T01:56:34.660Z,2.30
2022-08-16T01:57:35.521Z,2.50
2022-08-16T01:58:34.307Z,2.50
2022-08-16T01:59:34.290Z,2.50
2022-08-16T02:00:34.309Z,2.40
2022-08-16T02:01:34.377Z,2.30
2022-08-16T02:02:34.257Z,2.40
2022-08-16T02:03:35.247Z,2.50
2022-08-16T02:04:48.787Z,2.40
2022-08-16T02:05:35.226Z,2.20
2022-08-16T02:06:37.874Z,2.30
2022-08-16T02:07:34.217Z,2.40
2022-08-16T02:08:34.313Z,2.40
2022-08-16T02:09:34.188Z,2.70
2022-08-16T02:10:34.170Z,2.40
2022-08-16T02:11:47.943Z,2.40
2022-08-16T02:12:51.682Z,2.80
2022-08-16T02:13:35.130Z,2.30
2022-08-16T02:14:34.123Z,2.40
2022-08-16T02:15:37.879Z,2.50
2022-08-16T02:16:35.100Z,2.40
2022-08-16T02:17:34.101Z,2.50
2022-08-16T02:18:34.071Z,2.60
2022-08-16T02:19:58.581Z,2.50
2022-08-16T02:20:35.130Z,2.30
2022-08-16T02:21:34.061Z,2.30
2022-08-16T02:22:36.902Z,2.70
2022-08-16T02:23:34.030Z,2.50
2022-08-16T02:24:41.279Z,2.90
2022-08-16T02:25:50.800Z,2.40
2022-08-16T02:26:34.993Z,2.50
2022-08-16T02:27:33.992Z,2.70
2022-08-16T02:28:33.998Z,2.60
2022-08-16T02:29:33.975Z,2.60
2022-08-16T02:30:37.014Z,2.50
2022-08-16T02:32:02.699Z,2.80
2022-08-16T02:32:50.071Z,2.80
2022-08-16T02:33:43.814Z,2.70
2022-08-16T02:34:40.953Z,2.80
2022-08-16T02:35:34.904Z,2.80
2022-08-16T02:36:34.867Z,2.60
2022-08-16T02:37:51.742Z,2.70
2022-08-16T02:38:34.857Z,2.50
2022-08-16T02:39:33.894Z,2.70
2022-08-16T02:40:33.849Z,2.60
2022-08-16T02:41:34.167Z,2.70
2022-08-16T02:42:34.808Z,2.70
2022-08-16T02:43:33.832Z,2.90
2022-08-16T02:44:33.790Z,2.50
2022-08-16T02:45:33.779Z,2.40
2022-08-16T02:46:33.900Z,2.70
2022-08-16T02:47:33.770Z,2.50
2022-08-16T02:48:34.781Z,2.50
2022-08-16T02:49:59.178Z,2.70
2022-08-16T02:50:53.444Z,2.60
2022-08-16T02:51:35.680Z,2.60
2022-08-16T02:52:33.761Z,2.80
2022-08-16T02:53:33.697Z,2.80
2022-08-16T02:54:33.672Z,2.60
2022-08-16T02:55:41.276Z,2.60
2022-08-16T02:56:34.645Z,2.80
2022-08-16T02:57:33.649Z,2.90
2022-08-16T02:58:33.628Z,2.50
2022-08-16T02:59:39.889Z,2.70
2022-08-16T03:00:35.273Z,2.60
2022-08-16T03:01:37.035Z,2.80
2022-08-16T03:02:33.594Z,2.90
2022-08-16T03:04:29.278Z,2.60
2022-08-16T03:04:50.269Z,2.80
2022-08-16T03:05:34.556Z,2.70
2022-08-16T03:06:41.760Z,2.60
2022-08-16T03:07:37.345Z,2.40
2022-08-16T03:08:51.007Z,2.90
2022-08-16T03:09:34.511Z,2.80
2022-08-16T03:10:34.110Z,2.70
2022-08-16T03:11:35.490Z,3.00
2022-08-16T03:12:37.908Z,3.00
2022-08-16T03:13:39.969Z,2.70
2022-08-16T03:14:34.448Z,2.90
2022-08-16T03:15:33.438Z,2.80
2022-08-16T03:16:39.165Z,2.80
2022-08-16T03:17:34.429Z,2.40
2022-08-16T03:18:34.603Z,2.80
2022-08-16T03:19:46.914Z,2.80
2022-08-16T03:20:34.383Z,2.40
2022-08-16T03:21:38.243Z,2.60
2022-08-16T03:22:34.370Z,2.60
2022-08-16T03:23:35.726Z,2.70
2022-08-16T03:24:33.331Z,2.90
2022-08-16T03:25:44.750Z,3.00
2022-08-16T03:26:34.302Z,2.70
2022-08-16T03:27:33.435Z,3.00
2022-08-16T03:28:33.292Z,3.20
2022-08-16T03:29:33.282Z,3.00
2022-08-16T03:30:33.266Z,2.60
2022-08-16T03:31:34.665Z,3.10
2022-08-16T03:32:34.256Z,2.50
2022-08-16T03:33:33.224Z,2.80
2022-08-16T03:34:33.238Z,2.80
2022-08-16T03:35:33.743Z,3.00
2022-08-16T03:36:33.204Z,3.00
2022-08-16T03:37:33.196Z,2.70
2022-08-16T03:38:35.280Z,2.70
2022-08-16T03:39:33.189Z,2.70
2022-08-16T03:40:34.377Z,3.00
2022-08-16T03:41:50.118Z,2.70
2022-08-16T03:42:34.149Z,2.60
2022-08-16T03:43:51.034Z,3.00
2022-08-16T03:44:44.241Z,2.70
2022-08-16T03:45:34.088Z,3.10
2022-08-16T03:46:47.597Z,3.20
2022-08-16T03:47:34.444Z,3.10
2022-08-16T03:48:36.705Z,3.00
2022-08-16T03:49:36.546Z,3.00
2022-08-16T03:50:33.038Z,3.30
2022-08-16T03:51:33.028Z,2.90
2022-08-16T03:52:33.041Z,3.20
2022-08-16T03:53:37.636Z,2.90
2022-08-16T03:54:35.557Z,2.60
2022-08-16T03:55:45.506Z,2.80
2022-08-16T03:56:33.971Z,2.90
2022-08-16T03:57:36.422Z,2.80
2022-08-16T03:58:32.952Z,2.50
2022-08-16T03:59:32.934Z,2.70
2022-08-16T04:00:41.020Z,2.80
2022-08-16T04:01:33.949Z,2.90
2022-08-16T04:02:32.904Z,2.80
2022-08-16T04:03:32.956Z,3.10
2022-08-16T04:04:33.984Z,3.10
2022-08-16T04:05:32.869Z,2.80
2022-08-16T04:06:32.854Z,3.00
2022-08-16T04:07:33.540Z,3.20
2022-08-16T04:08:34.723Z,3.10
2022-08-16T04:09:35.442Z,2.80
2022-08-16T04:10:37.146Z,3.20
2022-08-16T04:11:36.872Z,3.10
2022-08-16T04:13:04.344Z,3.10
2022-08-16T04:14:00.813Z,3.30
2022-08-16T04:14:33.776Z,3.10
2022-08-16T04:15:32.747Z,2.90
2022-08-16T04:16:33.831Z,2.80
2022-08-16T04:17:32.741Z,2.90
2022-08-16T04:18:32.727Z,3.30
2022-08-16T04:19:32.709Z,3.20
2022-08-16T04:20:36.739Z,3.20
2022-08-16T04:21:32.695Z,3.60
2022-08-16T04:22:32.679Z,3.40
2022-08-16T04:23:32.678Z,3.40
2022-08-16T04:24:32.658Z,3.10
2022-08-16T04:25:32.652Z,3.30
2022-08-16T04:26:32.637Z,3.30
2022-08-16T04:27:32.619Z,3.30
2022-08-16T04:28:53.270Z,3.20
2022-08-16T04:29:43.821Z,3.30
2022-08-16T04:30:35.031Z,3.20
2022-08-16T04:31:32.591Z,3.30
2022-08-16T04:32:32.570Z,3.30
2022-08-16T04:33:34.819Z,3.20
2022-08-16T04:34:32.676Z,3.50
2022-08-16T04:35:33.968Z,3.40
2022-08-16T04:36:32.522Z,3.30
2022-08-16T04:37:32.514Z,3.10
2022-08-16T04:38:33.527Z,3.30
2022-08-16T04:39:46.242Z,3.10
2022-08-16T04:40:33.511Z,3.20
2022-08-16T04:41:37.393Z,3.50
2022-08-16T04:42:35.950Z,3.10
2022-08-16T04:43:32.474Z,3.30
2022-08-16T04:44:54.694Z,3.20
2022-08-16T04:45:36.142Z,3.00
2022-08-16T04:47:02.324Z,3.60
2022-08-16T04:47:35.670Z,3.20
2022-08-16T04:48:32.849Z,3.30
2022-08-16T04:49:43.994Z,3.20
2022-08-16T04:50:33.368Z,3.40
2022-08-16T04:51:35.750Z,3.30
2022-08-16T04:52:35.277Z,3.20
2022-08-16T04:53:32.349Z,3.50
2022-08-16T04:54:32.318Z,3.70
2022-08-16T04:55:38.345Z,3.50
2022-08-16T04:56:33.298Z,3.50
2022-08-16T04:57:32.321Z,3.20
2022-08-16T04:58:45.881Z,3.30
2022-08-16T04:59:33.279Z,3.40
2022-08-16T05:00:33.747Z,3.60
2022-08-16T05:01:55.957Z,3.00
2022-08-16T05:02:41.917Z,3.20
2022-08-16T05:03:33.265Z,3.50
2022-08-16T05:04:32.215Z,3.10
2022-08-16T05:05:36.685Z,3.70
2022-08-16T05:06:42.155Z,3.40
2022-08-16T05:07:33.183Z,3.40
2022-08-16T05:08:32.188Z,3.50
2022-08-16T05:09:36.506Z,3.50
2022-08-16T05:10:33.147Z,3.50
2022-08-16T05:11:32.364Z,3.70
2022-08-16T05:12:32.130Z,4.60
2022-08-16T05:13:41.311Z,3.20
2022-08-16T05:14:45.721Z,3.50
2022-08-16T05:15:33.097Z,3.80
2022-08-16T05:16:32.074Z,4.00
2022-08-16T05:17:32.538Z,3.50
2022-08-16T05:18:32.057Z,3.80
2022-08-16T05:19:35.991Z,3.70
2022-08-16T05:20:39.049Z,3.90
2022-08-16T05:21:38.127Z,3.50
2022-08-16T05:22:33.009Z,3.50
2022-08-16T05:23:32.128Z,3.50
2022-08-16T05:24:32.002Z,3.60
2022-08-16T05:25:40.809Z,3.60
2022-08-16T05:26:32.971Z,3.10
2022-08-16T05:27:31.958Z,3.30
2022-08-16T05:28:39.015Z,3.70
2022-08-16T05:29:57.847Z,3.60
2022-08-16T05:30:36.774Z,3.30
2022-08-16T05:31:31.932Z,3.50
2022-08-16T05:32:36.509Z,3.50
2022-08-16T05:33:32.930Z,3.20
2022-08-16T05:34:31.886Z,3.40
2022-08-16T05:35:31.878Z,3.50
2022-08-16T05:36:36.560Z,3.40
2022-08-16T05:37:39.693Z,3.30
2022-08-16T05:38:39.179Z,3.40
2022-08-16T05:39:33.354Z,3.50
2022-08-16T05:40:31.824Z,3.60
2022-08-16T05:41:31.815Z,3.60
2022-08-16T05:42:35.865Z,3.60
2022-08-16T05:43:43.283Z,3.50
2022-08-16T05:44:32.764Z,3.50
2022-08-16T05:45:31.767Z,3.50
2022-08-16T05:46:31.784Z,3.40
2022-08-16T05:47:31.745Z,3.30
2022-08-16T05:48:31.753Z,3.60
2022-08-16T05:49:39.841Z,3.50
2022-08-16T05:50:33.857Z,3.70
2022-08-16T05:51:39.014Z,3.10
2022-08-16T05:52:32.680Z,3.30
2022-08-16T05:53:31.686Z,3.50
2022-08-16T05:54:32.728Z,3.30
2022-08-16T05:55:31.656Z,3.20
2022-08-16T05:56:31.639Z,3.30
2022-08-16T05:57:35.611Z,3.20
2022-08-16T05:58:33.446Z,3.30
2022-08-16T05:59:31.610Z,3.50
2022-08-16T06:00:31.634Z,3.40
2022-08-16T06:01:32.867Z,3.50
2022-08-16T06:02:33.369Z,3.40
2022-08-16T06:03:31.686Z,3.20
2022-08-16T06:04:36.387Z,3.10
2022-08-16T06:05:36.236Z,3.10
2022-08-16T06:06:32.542Z,2.80
2022-08-16T06:07:32.089Z,3.40
2022-08-16T06:08:42.029Z,2.90
2022-08-16T06:09:42.896Z,3.40
2022-08-16T06:10:33.377Z,3.10
2022-08-16T06:11:31.481Z,3.00
2022-08-16T06:12:31.476Z,3.10
2022-08-16T06:13:32.548Z,2.90
2022-08-16T06:14:31.434Z,3.00
2022-08-16T06:15:31.439Z,3.10
2022-08-16T06:16:31.415Z,3.40
2022-08-16T06:17:42.610Z,2.70
2022-08-16T06:18:32.525Z,3.20
2022-08-16T06:19:33.928Z,2.90
2022-08-16T06:20:35.374Z,3.20
2022-08-16T06:21:36.910Z,2.90
2022-08-16T06:22:39.211Z,3.10
2022-08-16T06:23:32.472Z,2.90
2022-08-16T06:24:53.815Z,2.80
2022-08-16T06:25:36.628Z,3.00
2022-08-16T06:26:34.840Z,2.80
2022-08-16T06:27:39.759Z,2.30
2022-08-16T06:28:35.598Z,2.70
2022-08-16T06:29:31.290Z,2.80
2022-08-16T06:30:31.262Z,3.00
2022-08-16T06:31:31.260Z,2.70
2022-08-16T06:32:38.355Z,3.10
2022-08-16T06:33:41.198Z,2.70
2022-08-16T06:34:56.933Z,3.00
2022-08-16T06:35:40.201Z,2.80
2022-08-16T06:36:32.460Z,2.80
2022-08-16T06:37:37.506Z,2.90
2022-08-16T06:38:34.500Z,2.90
2022-08-16T06:39:31.208Z,2.70
2022-08-16T06:40:33.249Z,2.90
2022-08-16T06:41:39.855Z,3.00
2022-08-16T06:42:39.525Z,2.40
2022-08-16T06:43:32.127Z,2.70
2022-08-16T06:44:31.115Z,2.60
2022-08-16T06:45:31.117Z,2.60
2022-08-16T06:46:31.620Z,2.80
2022-08-16T06:47:54.243Z,2.60
2022-08-16T06:48:32.702Z,3.00
2022-08-16T06:49:31.435Z,2.50
2022-08-16T06:50:31.050Z,2.80
2022-08-16T06:51:46.521Z,2.70
2022-08-16T06:52:59.682Z,2.50
2022-08-16T06:53:32.019Z,2.90
2022-08-16T06:54:30.999Z,2.70
2022-08-16T06:55:34.159Z,2.90
2022-08-16T06:56:30.996Z,2.80
2022-08-16T06:57:31.013Z,2.50
2022-08-16T06:58:32.203Z,2.80
2022-08-16T06:59:31.052Z,2.50
2022-08-16T07:00:32.197Z,2.90
2022-08-16T07:01:43.256Z,2.60
2022-08-16T07:02:32.852Z,2.80
2022-08-16T07:03:32.219Z,2.50
2022-08-16T07:04:32.600Z,2.80
2022-08-16T07:05:41.520Z,2.80
2022-08-16T07:06:31.885Z,2.60
2022-08-16T07:07:34.480Z,2.70
2022-08-16T07:08:31.899Z,2.50
2022-08-16T07:09:30.903Z,2.60
2022-08-16T07:10:30.847Z,2.50
2022-08-16T07:11:48.272Z,2.60
2022-08-16T07:12:36.563Z,2.50
2022-08-16T07:14:00.221Z,2.50
2022-08-16T07:14:31.796Z,2.30
2022-08-16T07:15:30.769Z,2.40
2022-08-16T07:16:30.770Z,2.60
2022-08-16T07:17:30.760Z,2.50
2022-08-16T07:18:30.742Z,2.50
2022-08-16T07:19:33.519Z,2.70
2022-08-16T07:20:46.992Z,2.30
2022-08-16T07:21:45.652Z,2.30
2022-08-16T07:22:52.434Z,2.90
2022-08-16T07:23:39.080Z,2.10
2022-08-16T07:24:31.690Z,2.30
2022-08-16T07:25:30.674Z,2.70
2022-08-16T07:26:30.676Z,2.60
2022-08-16T07:27:33.715Z,2.90
2022-08-16T07:28:30.647Z,2.70
2022-08-16T07:29:31.470Z,2.60
2022-08-16T07:30:38.997Z,2.60
2022-08-16T07:31:37.446Z,2.80
2022-08-16T07:32:31.792Z,3.00
2022-08-16T07:33:53.592Z,2.90
2022-08-16T07:34:35.604Z,3.10
2022-08-16T07:35:31.570Z,3.20
2022-08-16T07:36:30.913Z,3.30
2022-08-16T07:37:30.580Z,3.00
2022-08-16T07:38:33.916Z,2.90
2022-08-16T07:39:33.659Z,2.90
2022-08-16T07:40:56.335Z,2.90
2022-08-16T07:41:31.951Z,3.20
2022-08-16T07:42:34.956Z,3.50
2022-08-16T07:43:30.733Z,3.30
2022-08-16T07:44:49.343Z,3.50
2022-08-16T07:45:33.609Z,3.80
2022-08-16T07:46:39.671Z,3.30
2022-08-16T07:47:32.136Z,3.50
2022-08-16T07:48:30.437Z,3.00
2022-08-16T07:49:32.340Z,3.80
2022-08-16T07:50:57.299Z,3.60
2022-08-16T07:51:31.406Z,3.40
2022-08-16T07:52:30.408Z,3.10
2022-08-16T07:53:30.408Z,3.30
2022-08-16T07:54:32.428Z,2.90
2022-08-16T07:55:45.437Z,3.50
2022-08-16T07:56:34.063Z,3.10
2022-08-16T07:57:34.992Z,3.00
2022-08-16T07:58:34.872Z,2.90
2022-08-16T07:59:42.962Z,2.90
2022-08-16T08:00:31.303Z,3.00
2022-08-16T08:01:30.301Z,3.20
2022-08-16T08:02:30.311Z,3.40
2022-08-16T08:03:36.192Z,3.50
2022-08-16T08:04:32.427Z,3.40
2022-08-16T08:05:35.631Z,3.60
2022-08-16T08:06:31.245Z,3.30
2022-08-16T08:07:32.427Z,3.10
2022-08-16T08:08:50.404Z,3.40
2022-08-16T08:09:31.236Z,3.20
2022-08-16T08:10:30.211Z,3.40
2022-08-16T08:11:30.219Z,3.40
2022-08-16T08:12:32.028Z,3.30
2022-08-16T08:13:42.589Z,3.40
2022-08-16T08:14:31.179Z,3.20
2022-08-16T08:15:34.163Z,4.10
2022-08-16T08:16:31.089Z,3.50
2022-08-16T08:17:43.347Z,3.80
2022-08-16T08:18:31.200Z,3.90
2022-08-16T08:19:30.132Z,3.60
2022-08-16T08:20:30.116Z,3.60
2022-08-16T08:22:00.685Z,3.90
2022-08-16T08:22:31.083Z,3.70
2022-08-16T08:23:30.085Z,3.50
2022-08-16T08:24:32.099Z,3.90
2022-08-16T08:25:54.382Z,3.30
2022-08-16T08:26:31.055Z,3.40
2022-08-16T08:27:32.665Z,3.10
2022-08-16T08:28:30.037Z,2.80
2022-08-16T08:29:37.564Z,3.30
2022-08-16T08:30:51.615Z,3.10
2022-08-16T08:31:31.059Z,3.10
2022-08-16T08:32:58.831Z,2.70
2022-08-16T08:33:30.979Z,2.90
2022-08-16T08:34:29.971Z,3.00
2022-08-16T08:35:29.973Z,2.80
2022-08-16T08:36:32.895Z,3.00
2022-08-16T08:37:54.223Z,2.70
2022-08-16T08:38:43.660Z,3.20
2022-08-16T08:39:30.973Z,3.00
2022-08-16T08:40:29.998Z,2.70
2022-08-16T08:41:30.474Z,2.50
2022-08-16T08:42:29.892Z,2.80
2022-08-16T08:43:29.893Z,3.10
2022-08-16T08:44:31.328Z,2.80
2022-08-16T08:45:48.211Z,3.00
2022-08-16T08:46:35.756Z,2.80
2022-08-16T08:47:30.858Z,2.80
2022-08-16T08:48:33.380Z,2.80
2022-08-16T08:49:46.501Z,2.90
2022-08-16T08:50:31.891Z,3.00
2022-08-16T08:51:35.540Z,2.90
2022-08-16T08:52:34.459Z,2.60
2022-08-16T08:53:30.917Z,3.10
2022-08-16T08:54:29.769Z,2.90
2022-08-16T08:55:30.844Z,2.60
2022-08-16T08:56:29.820Z,2.80
2022-08-16T08:57:29.761Z,2.80
2022-08-16T08:58:34.121Z,2.70
2022-08-16T08:59:29.742Z,2.70
2022-08-16T09:00:30.085Z,2.40
2022-08-16T09:01:31.963Z,2.50
2022-08-16T09:02:30.705Z,3.00
2022-08-16T09:03:29.705Z,2.80
2022-08-16T09:04:29.736Z,2.70
2022-08-16T09:05:35.772Z,2.50
2022-08-16T09:06:30.655Z,2.60
2022-08-16T09:07:29.656Z,2.60
2022-08-16T09:08:29.647Z,2.60
2022-08-16T09:09:33.527Z,2.80
2022-08-16T09:10:29.885Z,3.00
2022-08-16T09:11:38.853Z,2.90
2022-08-16T09:12:36.190Z,2.50
2022-08-16T09:13:32.735Z,2.70
2022-08-16T09:14:29.670Z,2.60
2022-08-16T09:15:32.480Z,2.10
2022-08-16T09:17:02.280Z,2.40
2022-08-16T09:17:47.434Z,2.50
2022-08-16T09:18:35.376Z,2.40
2022-08-16T09:19:32.282Z,2.60
2022-08-16T09:20:29.634Z,2.40
2022-08-16T09:21:31.170Z,2.40
2022-08-16T09:22:29.532Z,2.70
2022-08-16T09:23:29.532Z,2.40
2022-08-16T09:24:52.886Z,2.30
2022-08-16T09:25:33.779Z,2.80
2022-08-16T09:26:44.679Z,2.70
2022-08-16T09:27:30.465Z,2.90
2022-08-16T09:29:13.634Z,2.60
2022-08-16T09:29:45.307Z,2.30
2022-08-16T09:30:33.888Z,2.50
2022-08-16T09:31:30.437Z,2.60
2022-08-16T09:32:30.567Z,2.60
2022-08-16T09:33:32.502Z,2.40
2022-08-16T09:34:30.408Z,2.70
2022-08-16T09:35:29.400Z,2.80
2022-08-16T09:36:32.452Z,3.00
2022-08-16T09:37:30.154Z,2.80
2022-08-16T09:38:32.386Z,2.80
2022-08-16T09:39:41.464Z,2.80
2022-08-16T09:40:32.696Z,2.70
2022-08-16T09:41:30.352Z,2.70
2022-08-16T09:42:29.331Z,2.60
2022-08-16T09:45:13.145Z,2.90
2022-08-16T09:45:30.322Z,2.80
2022-08-16T09:46:48.192Z,2.50
2022-08-16T09:47:56.311Z,3.00
2022-08-16T09:48:44.472Z,2.70
2022-08-16T09:49:37.078Z,2.80
2022-08-16T09:50:36.914Z,2.70
2022-08-16T09:51:30.724Z,2.90
2022-08-16T09:52:30.280Z,2.70
2022-08-16T09:53:29.274Z,2.80
2022-08-16T09:54:32.233Z,2.70
2022-08-16T09:55:29.217Z,3.10
2022-08-16T09:56:29.209Z,2.80
2022-08-16T09:57:34.559Z,2.50
2022-08-16T09:58:41.933Z,2.90
2022-08-16T09:59:30.750Z,2.80
2022-08-16T10:00:45.195Z,2.70
2022-08-16T10:01:30.180Z,3.10
2022-08-16T10:02:29.161Z,2.70
2022-08-16T10:03:30.408Z,2.90
2022-08-16T10:04:35.645Z,2.90
2022-08-16T10:05:30.122Z,2.80
2022-08-16T10:06:33.445Z,2.80
2022-08-16T10:07:44.070Z,2.40
2022-08-16T10:08:30.115Z,2.30
2022-08-16T10:09:53.369Z,2.70
2022-08-16T10:10:30.553Z,2.40
2022-08-16T10:11:29.096Z,2.70
2022-08-16T10:12:29.066Z,2.70
2022-08-16T10:13:29.373Z,2.50
2022-08-16T10:14:33.157Z,2.60
2022-08-16T10:15:30.225Z,2.90
2022-08-16T10:16:29.040Z,2.80
2022-08-16T10:17:29.048Z,2.50
2022-08-16T10:19:01.475Z,2.50
2022-08-16T10:19:31.943Z,2.80
2022-08-16T10:20:29.010Z,2.80
2022-08-16T10:21:29.222Z,3.00
2022-08-16T10:22:28.989Z,2.70
2022-08-16T10:23:28.971Z,2.90
2022-08-16T10:24:29.211Z,2.60
2022-08-16T10:27:18.069Z,2.70
2022-08-16T10:27:20.518Z,2.60
2022-08-16T10:27:46.068Z,2.90
2022-08-16T10:28:32.166Z,2.70
2022-08-16T10:30:00.475Z,2.60
2022-08-16T10:30:31.863Z,3.10
2022-08-16T10:31:45.706Z,3.10
2022-08-16T10:32:30.624Z,2.60
2022-08-16T10:33:29.483Z,2.70
2022-08-16T10:34:32.142Z,2.70
2022-08-16T10:35:33.131Z,2.80
2022-08-16T10:36:38.721Z,2.60
2022-08-16T10:37:32.833Z,2.80
2022-08-16T10:38:29.866Z,2.80
2022-08-16T10:39:40.487Z,2.70
2022-08-16T10:40:30.815Z,2.50
2022-08-16T10:41:28.811Z,2.70
2022-08-16T10:42:28.799Z,2.90
2022-08-16T10:43:30.944Z,2.70
2022-08-16T10:44:28.800Z,2.70
2022-08-16T10:45:28.770Z,3.10
2022-08-16T10:46:40.028Z,3.00
2022-08-16T10:47:33.155Z,2.70
2022-08-16T10:48:29.741Z,2.70
2022-08-16T10:49:28.781Z,2.70
2022-08-16T10:50:28.732Z,2.80
2022-08-16T10:51:34.529Z,3.00
2022-08-16T10:53:32.654Z,2.70
2022-08-16T10:54:30.615Z,3.20
2022-08-16T10:55:45.616Z,2.50
2022-08-16T10:56:55.347Z,2.80
2022-08-16T10:57:32.810Z,2.50
2022-08-16T10:58:34.368Z,2.60
2022-08-16T10:59:39.188Z,2.80
2022-08-16T11:00:29.648Z,2.60
2022-08-16T11:01:39.831Z,2.60
2022-08-16T12:47:00.213Z,2.50
2022-08-16T12:48:22.559Z,2.50
2022-08-16T12:49:01.295Z,2.60
2022-08-16T12:50:00.167Z,2.30
2022-08-16T12:51:01.105Z,2.30
2022-08-16T12:52:01.442Z,2.10
2022-08-16T12:53:00.156Z,2.60
2022-08-16T12:54:00.137Z,2.40
2022-08-16T12:55:00.129Z,2.10
2022-08-16T12:56:00.124Z,2.10
2022-08-16T12:57:00.140Z,2.20
2022-08-16T12:58:00.381Z,2.80
2022-08-16T12:59:00.121Z,2.70
2022-08-16T13:00:00.078Z,2.60
2022-08-16T13:01:00.113Z,2.10
2022-08-16T13:02:00.068Z,2.20
2022-08-16T13:03:00.060Z,2.20
2022-08-16T13:04:11.879Z,2.30
2022-08-16T13:05:01.051Z,2.40
2022-08-16T13:06:00.031Z,2.10
2022-08-16T13:07:00.089Z,2.10
2022-08-16T13:08:00.579Z,2.00
2022-08-16T13:09:00.020Z,2.00
2022-08-16T13:10:02.518Z,2.10
2022-08-16T13:11:00.993Z,2.10
2022-08-16T13:12:00.064Z,1.90
2022-08-16T13:12:59.984Z,2.30
2022-08-16T13:13:59.959Z,2.30
2022-08-16T13:14:59.967Z,2.50
2022-08-16T13:16:02.185Z,2.00
2022-08-16T13:16:59.946Z,2.20
2022-08-16T13:17:59.934Z,2.10
2022-08-16T13:18:59.934Z,2.20
2022-08-16T13:20:11.038Z,2.30
2022-08-16T13:21:00.917Z,2.30
2022-08-16T13:21:59.897Z,2.40
2022-08-16T13:22:59.908Z,2.50
2022-08-16T13:23:59.878Z,2.20
2022-08-16T13:24:59.870Z,2.10
2022-08-16T13:25:59.860Z,2.10
2022-08-16T13:26:59.859Z,2.30
2022-08-16T13:28:04.035Z,2.00
2022-08-16T13:28:59.841Z,2.00
2022-08-16T13:29:59.831Z,2.50
2022-08-16T13:30:59.821Z,1.80
2022-08-16T13:31:59.812Z,2.10
2022-08-16T13:32:59.829Z,2.30
2022-08-16T13:33:59.792Z,2.20
2022-08-16T13:34:59.814Z,2.40
2022-08-16T13:35:59.783Z,2.00
2022-08-16T13:36:59.771Z,2.10
2022-08-16T13:37:59.775Z,2.10
2022-08-16T13:38:59.754Z,2.30
2022-08-16T13:39:59.799Z,2.40
2022-08-16T13:40:59.742Z,2.10
2022-08-16T13:41:59.726Z,2.30
2022-08-16T13:42:59.726Z,2.10
2022-08-16T13:43:59.744Z,2.30
2022-08-16T13:44:59.708Z,1.90
2022-08-16T13:45:59.695Z,2.50
2022-08-16T13:46:59.687Z,2.40
2022-08-16T13:47:59.678Z,2.10
2022-08-16T13:48:59.670Z,2.00
2022-08-16T13:49:59.658Z,2.20
2022-08-16T13:51:04.051Z,2.70
2022-08-16T13:51:59.660Z,2.30
2022-08-16T13:52:59.649Z,2.20
2022-08-16T13:54:03.195Z,2.10
2022-08-16T13:54:59.621Z,2.30
2022-08-16T13:55:59.614Z,2.20
2022-08-16T13:56:59.602Z,2.20
2022-08-16T13:58:37.029Z,2.30
2022-08-16T13:59:00.815Z,2.00
2022-08-16T13:59:59.572Z,2.00
2022-08-16T14:00:59.568Z,2.30
2022-08-16T14:02:02.688Z,2.10
2022-08-16T14:02:59.707Z,2.20
2022-08-16T14:03:59.536Z,2.10
2022-08-16T14:05:03.007Z,2.00
2022-08-16T14:06:00.611Z,2.40
2022-08-16T14:06:59.519Z,2.10
2022-08-16T14:07:59.507Z,2.00
2022-08-16T14:09:06.554Z,2.00
2022-08-16T14:10:00.480Z,2.20
2022-08-16T14:10:59.498Z,2.00
2022-08-16T14:12:00.394Z,2.20
2022-08-16T14:12:59.469Z,2.20
2022-08-16T14:13:59.453Z,2.10
2022-08-16T14:14:59.436Z,2.10
2022-08-16T14:15:59.422Z,2.00
2022-08-16T14:16:59.413Z,2.10
2022-08-16T14:18:17.168Z,2.20
2022-08-16T14:19:00.414Z,2.00
2022-08-16T14:19:59.983Z,2.20
2022-08-16T14:20:59.389Z,2.20
2022-08-16T14:22:15.425Z,2.10
2022-08-16T14:23:00.367Z,1.90
2022-08-16T14:23:59.358Z,2.20
2022-08-16T14:24:59.335Z,2.00
2022-08-16T14:25:59.326Z,2.10
2022-08-16T14:26:59.317Z,2.10
2022-08-16T14:27:59.319Z,2.30
2022-08-16T14:29:03.518Z,2.50
2022-08-16T14:29:59.289Z,2.30
2022-08-16T14:30:59.290Z,2.00
2022-08-16T14:31:59.299Z,1.90
2022-08-16T14:32:59.283Z,2.20
2022-08-16T14:33:59.248Z,2.50
2022-08-16T14:34:59.250Z,2.00
2022-08-16T14:35:59.233Z,2.20
2022-08-16T14:36:59.557Z,2.40
2022-08-16T14:37:59.230Z,5.20
2022-08-16T14:38:59.235Z,5.50
2022-08-16T14:39:59.271Z,4.40
2022-08-16T14:40:59.195Z,2.30
2022-08-16T14:41:59.255Z,1.90
2022-08-16T14:43:07.086Z,2.20
2022-08-16T14:44:00.145Z,2.20
2022-08-16T14:45:00.329Z,2.00
2022-08-16T14:45:59.226Z,2.30
2022-08-16T14:47:00.226Z,2.20
2022-08-16T14:47:59.507Z,2.10
2022-08-16T14:48:59.591Z,2.10
2022-08-16T14:49:59.110Z,2.10
2022-08-16T14:50:59.113Z,2.50
2022-08-16T14:51:59.069Z,2.30
2022-08-16T14:52:59.175Z,2.30
2022-08-16T14:53:59.048Z,2.20
2022-08-16T14:54:59.119Z,2.10
2022-08-16T14:55:59.039Z,2.20
2022-08-16T14:56:59.031Z,2.30
2022-08-16T14:57:59.011Z,2.30
2022-08-16T14:58:59.003Z,2.50
2022-08-16T15:00:03.249Z,2.30
2022-08-16T15:01:00.012Z,2.10
2022-08-16T15:02:00.793Z,2.80
2022-08-16T15:02:58.984Z,2.00
2022-08-16T15:03:58.953Z,2.20
2022-08-16T15:04:58.947Z,2.20